createdAt,value
2018-08-11T04:00:31.657Z,77.34
2018-08-11T04:01:31.607Z,77.55
2018-08-11T04:02:31.615Z,78.97
2018-08-11T04:03:31.592Z,77.95
2018-08-11T04:04:31.626Z,78.26
2018-08-11T04:05:31.572Z,77.78
2018-08-11T04:06:31.593Z,77.95
2018-08-11T04:07:31.544Z,77.14
2018-08-11T04:08:31.534Z,77.64
2018-08-11T04:09:31.533Z,78.87
2018-08-11T04:10:31.505Z,79.27
2018-08-11T04:11:31.534Z,79.38
2018-08-11T04:12:31.505Z,78.77
2018-08-11T04:13:31.477Z,78.66
2018-08-11T04:14:31.470Z,78.87
2018-08-11T04:15:31.450Z,78.77
2018-08-11T04:16:31.443Z,77.95
2018-08-11T04:17:31.430Z,78.66
2018-08-11T04:18:31.419Z,78.26
2018-08-11T04:19:31.415Z,79.27
2018-08-11T04:20:31.396Z,78.97
2018-08-11T04:21:31.383Z,78.16
2018-08-11T04:22:31.389Z,79.14
2018-08-11T04:23:31.362Z,79.14
2018-08-11T04:24:31.360Z,78.73
2018-08-11T04:25:31.336Z,78.42
2018-08-11T04:26:31.329Z,78.12
2018-08-11T04:27:31.354Z,79.03
2018-08-11T04:28:31.305Z,78.93
2018-08-11T04:29:31.304Z,79.95
2018-08-11T04:30:31.280Z,78.93
2018-08-11T04:31:31.269Z,79.03
2018-08-11T04:32:31.258Z,79.95
2018-08-11T04:33:31.250Z,79.85
2018-08-11T04:34:31.289Z,78.63
2018-08-11T04:35:31.282Z,78.53
2018-08-11T04:36:31.216Z,79.14
2018-08-11T04:37:31.199Z,78.83
2018-08-11T04:38:31.187Z,78.02
2018-08-11T04:39:31.196Z,78.42
2018-08-11T04:40:31.169Z,78.89
2018-08-11T04:41:31.162Z,78.73
2018-08-11T04:42:31.183Z,78.69
2018-08-11T04:43:31.132Z,79.14
2018-08-11T04:44:31.143Z,79.64
2018-08-11T04:45:31.110Z,79.50
2018-08-11T04:46:31.101Z,78.59
2018-08-11T04:47:31.091Z,78.19
2018-08-11T04:48:31.082Z,78.69
2018-08-11T04:49:31.076Z,78.28
2018-08-11T04:50:31.056Z,78.69
2018-08-11T04:51:31.045Z,79.41
2018-08-11T04:52:31.029Z,79.30
2018-08-11T04:53:31.023Z,78.89
2018-08-11T04:54:31.022Z,78.69
2018-08-11T04:55:31.001Z,78.39
2018-08-11T04:56:30.989Z,78.55
2018-08-11T04:57:30.974Z,78.76
2018-08-11T04:58:30.963Z,78.66
2018-08-11T04:59:30.973Z,77.64
2018-08-11T05:00:30.942Z,78.55
2018-08-11T05:01:30.934Z,77.94
2018-08-11T05:02:30.920Z,78.35
2018-08-11T05:03:30.944Z,78.35
2018-08-11T05:04:30.905Z,78.05
2018-08-11T05:05:30.884Z,77.84
2018-08-11T05:06:30.875Z,78.62
2018-08-11T05:07:30.866Z,78.21
2018-08-11T05:08:30.850Z,78.31
2018-08-11T05:09:30.851Z,78.31
2018-08-11T05:10:30.828Z,78.66
2018-08-11T05:11:30.821Z,79.43
2018-08-11T05:12:30.806Z,78.31
2018-08-11T05:13:30.792Z,78.76
2018-08-11T05:14:30.795Z,78.72
2018-08-11T05:15:30.779Z,79.43
2018-08-11T05:16:30.759Z,78.82
2018-08-11T05:17:30.766Z,78.89
2018-08-11T05:18:30.739Z,79.02
2018-08-11T05:19:30.737Z,78.38
2018-08-11T05:20:30.730Z,78.58
2018-08-11T05:21:30.706Z,78.52
2018-08-11T05:22:30.695Z,78.78
2018-08-11T05:23:30.681Z,78.89
2018-08-11T05:24:30.682Z,78.99
2018-08-11T05:25:30.658Z,79.19
2018-08-11T05:26:30.650Z,78.68
2018-08-11T05:27:30.666Z,78.85
2018-08-11T05:28:30.628Z,79.25
2018-08-11T05:29:30.628Z,78.24
2018-08-11T05:30:30.605Z,78.44
2018-08-11T05:31:30.594Z,78.24
2018-08-11T05:32:30.581Z,77.63
2018-08-11T05:33:30.567Z,77.94
2018-08-11T05:34:30.567Z,79.05
2018-08-11T05:35:30.545Z,77.70
2018-08-11T05:36:30.534Z,77.39
2018-08-11T05:37:30.525Z,76.68
2018-08-11T05:38:30.514Z,76.78
2018-08-11T05:39:30.522Z,76.68
2018-08-11T05:40:30.489Z,76.48
2018-08-11T05:41:30.502Z,76.75
2018-08-11T05:42:30.475Z,78.47
2018-08-11T05:43:30.460Z,78.06
2018-08-11T05:44:30.474Z,77.86
2018-08-11T05:45:30.432Z,77.83
2018-08-11T05:46:30.429Z,77.12
2018-08-11T05:47:30.410Z,78.23
2018-08-11T05:48:30.397Z,79.25
2018-08-11T05:49:30.419Z,77.62
2018-08-11T05:50:30.385Z,76.81
2018-08-11T05:51:30.371Z,77.69
2018-08-11T05:52:30.353Z,76.57
2018-08-11T05:53:30.353Z,76.47
2018-08-11T05:54:30.330Z,76.98
2018-08-11T05:55:30.348Z,75.66
2018-08-11T05:56:30.309Z,75.66
2018-08-11T05:57:30.301Z,75.73
2018-08-11T05:58:30.287Z,75.93
2018-08-11T05:59:30.287Z,75.73
2018-08-11T06:00:30.279Z,76.23
2018-08-11T06:01:30.253Z,77.65
2018-08-11T06:02:30.245Z,76.94
2018-08-11T06:03:30.229Z,75.99
2018-08-11T06:04:30.222Z,76.60
2018-08-11T06:05:30.221Z,75.49
2018-08-11T06:06:30.220Z,74.68
2018-08-11T06:07:30.185Z,76.06
2018-08-11T06:08:30.177Z,77.61
2018-08-11T06:09:30.163Z,75.79
2018-08-11T06:10:30.207Z,76.06
2018-08-11T06:11:30.147Z,75.65
2018-08-11T06:12:30.138Z,76.67
2018-08-11T06:13:30.121Z,75.62
2018-08-11T06:14:30.107Z,74.40
2018-08-11T06:15:30.112Z,75.68
2018-08-11T06:16:30.087Z,76.46
2018-08-11T06:17:30.075Z,73.02
2018-08-11T06:18:30.064Z,73.83
2018-08-11T06:19:30.052Z,73.08
2018-08-11T06:20:30.054Z,72.71
2018-08-11T06:21:30.029Z,70.36
2018-08-11T06:22:30.017Z,69.62
2018-08-11T06:23:30.012Z,67.47
2018-08-11T06:24:29.993Z,65.92
2018-08-11T06:25:29.991Z,63.85
2018-08-11T06:26:29.972Z,64.12
2018-08-11T06:27:29.962Z,59.26
2018-08-11T06:28:29.948Z,60.97
2018-08-11T06:29:29.940Z,60.97
2018-08-11T06:30:29.936Z,58.62
2018-08-11T06:31:30.034Z,55.55
2018-08-11T06:32:29.903Z,54.05
2018-08-11T06:33:29.895Z,55.46
2018-08-11T06:34:29.881Z,55.43
2018-08-11T06:35:29.881Z,54.10
2018-08-11T06:36:29.868Z,54.70
2018-08-11T06:37:29.852Z,54.00
2018-08-11T06:38:29.836Z,55.51
2018-08-11T06:39:29.828Z,54.07
2018-08-11T06:40:29.884Z,53.20
2018-08-11T06:41:29.804Z,51.51
2018-08-11T06:42:29.796Z,52.80
2018-08-11T06:43:29.781Z,52.80
2018-08-11T06:44:29.771Z,51.26
2018-08-11T06:45:29.821Z,54.07
2018-08-11T06:46:29.813Z,52.47
2018-08-11T06:47:29.735Z,54.85
2018-08-11T06:48:29.727Z,53.22
2018-08-11T06:49:29.720Z,51.21
2018-08-11T06:50:29.712Z,50.21
2018-08-11T06:51:29.693Z,48.51
2018-08-11T06:52:29.682Z,48.96
2018-08-11T06:53:29.668Z,47.81
2018-08-11T06:54:29.665Z,48.69
2018-08-11T06:55:29.684Z,47.89
2018-08-11T06:56:29.632Z,46.67
2018-08-11T06:57:29.635Z,46.67
2018-08-11T06:58:29.612Z,44.95
2018-08-11T06:59:29.601Z,46.73
2018-08-11T07:00:29.601Z,44.61
2018-08-11T07:01:29.578Z,45.51
2018-08-11T07:02:29.568Z,45.89
2018-08-11T07:03:29.558Z,44.01
2018-08-11T07:04:29.554Z,44.79
2018-08-11T07:05:29.546Z,41.91
2018-08-11T07:06:29.562Z,42.41
2018-08-11T07:07:29.512Z,42.73
2018-08-11T07:08:29.505Z,46.75
2018-08-11T07:09:29.488Z,45.55
2018-08-11T07:10:29.492Z,45.85
2018-08-11T07:11:29.496Z,47.15
2018-08-11T07:12:29.478Z,48.80
2018-08-11T07:13:29.445Z,42.69
2018-08-11T07:14:29.435Z,43.39
2018-08-11T07:15:29.433Z,43.71
2018-08-11T07:16:29.413Z,43.11
2018-08-11T07:17:29.402Z,42.79
2018-08-11T07:18:29.388Z,42.37
2018-08-11T07:19:29.378Z,41.80
2018-08-11T07:20:29.377Z,42.91
2018-08-11T07:21:29.464Z,43.11
2018-08-11T07:22:29.347Z,44.51
2018-08-11T07:23:29.334Z,45.78
2018-08-11T07:24:29.323Z,42.97
2018-08-11T07:25:29.328Z,42.45
2018-08-11T07:26:29.351Z,42.43
2018-08-11T07:27:29.292Z,40.26
2018-08-11T07:28:29.281Z,41.74
2018-08-11T07:29:29.278Z,40.44
2018-08-11T07:30:29.268Z,42.05
2018-08-11T07:31:29.250Z,42.13
2018-08-11T07:32:29.235Z,40.84
2018-08-11T07:33:29.234Z,41.63
2018-08-11T07:34:29.217Z,42.01
2018-08-11T07:35:29.214Z,40.50
2018-08-11T07:36:29.311Z,38.49
2018-08-11T07:37:29.182Z,40.18
2018-08-11T07:38:29.174Z,39.97
2018-08-11T07:39:29.158Z,40.34
2018-08-11T07:40:29.157Z,39.15
2018-08-11T07:41:29.138Z,38.87
2018-08-11T07:42:29.124Z,37.18
2018-08-11T07:43:29.144Z,38.28
2018-08-11T07:44:29.105Z,38.97
2018-08-11T07:45:29.103Z,38.97
2018-08-11T07:46:29.082Z,38.51
2018-08-11T07:47:29.094Z,39.69
2018-08-11T07:48:29.067Z,38.99
2018-08-11T07:49:29.049Z,42.45
2018-08-11T07:50:29.193Z,39.67
2018-08-11T07:51:29.028Z,37.68
2018-08-11T07:52:29.015Z,39.67
2018-08-11T07:53:29.011Z,37.77
2018-08-11T07:54:28.991Z,38.97
2018-08-11T07:55:28.981Z,39.57
2018-08-11T07:56:28.984Z,39.01
2018-08-11T07:57:28.962Z,38.69
2018-08-11T07:58:28.947Z,39.67
2018-08-11T07:59:28.938Z,39.25
2018-08-11T08:00:28.926Z,36.66
2018-08-11T08:01:29.033Z,37.38
2018-08-11T08:02:28.906Z,38.07
2018-08-11T08:03:28.896Z,39.69
2018-08-11T08:04:28.885Z,39.01
2018-08-11T08:05:28.873Z,38.73
2018-08-11T08:06:28.869Z,39.53
2018-08-11T08:07:28.857Z,39.23
2018-08-11T08:08:28.840Z,39.72
2018-08-11T08:09:28.828Z,39.36
2018-08-11T08:10:28.816Z,40.34
2018-08-11T08:11:28.819Z,38.51
2018-08-11T08:12:28.794Z,38.49
2018-08-11T08:13:28.784Z,38.47
2018-08-11T08:14:28.779Z,37.36
2018-08-11T08:15:28.763Z,38.18
2018-08-11T08:16:28.765Z,38.91
2018-08-11T08:17:28.742Z,40.24
2018-08-11T08:18:28.730Z,40.08
2018-08-11T08:19:28.719Z,40.40
2018-08-11T08:20:28.709Z,39.94
2018-08-11T08:21:28.711Z,39.95
2018-08-11T08:22:28.686Z,41.85
2018-08-11T08:23:28.676Z,42.87
2018-08-11T08:24:28.665Z,43.18
2018-08-11T08:25:28.654Z,42.76
2018-08-11T08:26:28.770Z,40.81
2018-08-11T08:27:28.630Z,41.60
2018-08-11T08:28:28.625Z,42.11
2018-08-11T08:29:28.613Z,41.61
2018-08-11T08:30:28.596Z,40.64
2018-08-11T08:31:28.605Z,40.75
2018-08-11T08:32:28.575Z,43.18
2018-08-11T08:33:28.565Z,42.07
2018-08-11T08:34:28.553Z,39.78
2018-08-11T08:35:28.542Z,40.30
2018-08-11T08:36:28.543Z,41.52
2018-08-11T08:37:28.522Z,42.24
2018-08-11T08:38:28.518Z,40.66
2018-08-11T08:39:28.499Z,41.85
2018-08-11T08:40:28.490Z,40.78
2018-08-11T08:41:28.489Z,42.60
2018-08-11T08:42:28.473Z,43.19
2018-08-11T08:43:28.456Z,42.71
2018-08-11T08:44:28.448Z,42.82
2018-08-11T08:45:28.432Z,43.13
2018-08-11T08:46:28.441Z,43.04
2018-08-11T08:47:28.495Z,42.83
2018-08-11T08:48:28.407Z,43.04
2018-08-11T08:49:28.390Z,42.76
2018-08-11T08:50:28.380Z,42.76
2018-08-11T08:51:28.378Z,43.05
2018-08-11T08:52:28.354Z,42.18
2018-08-11T08:53:28.345Z,40.66
2018-08-11T08:54:28.335Z,40.72
2018-08-11T08:55:28.324Z,40.73
2018-08-11T08:56:28.328Z,42.24
2018-08-11T08:57:28.299Z,40.86
2018-08-11T08:58:28.293Z,40.95
2018-08-11T08:59:28.278Z,40.83
2018-08-11T09:00:28.269Z,40.56
2018-08-11T09:01:28.270Z,41.27
2018-08-11T09:02:28.248Z,40.44
2018-08-11T09:03:28.231Z,41.91
2018-08-11T09:04:28.225Z,39.84
2018-08-11T09:05:28.218Z,37.68
2018-08-11T09:06:28.209Z,38.52
2018-08-11T09:07:28.191Z,37.41
2018-08-11T09:08:28.182Z,37.39
2018-08-11T09:09:28.173Z,35.31
2018-08-11T09:10:28.156Z,35.11
2018-08-11T09:11:28.153Z,35.98
2018-08-11T09:12:28.133Z,35.16
2018-08-11T09:13:28.121Z,34.92
2018-08-11T09:14:28.113Z,32.96
2018-08-11T09:15:28.102Z,35.11
2018-08-11T09:16:28.102Z,36.57
2018-08-11T09:17:28.085Z,36.61
2018-08-11T09:18:28.068Z,35.29
2018-08-11T09:19:28.129Z,35.46
2018-08-11T09:20:28.046Z,34.86
2018-08-11T09:21:28.046Z,36.76
2018-08-11T09:22:28.022Z,35.07
2018-08-11T09:23:28.012Z,35.22
2018-08-11T09:24:28.001Z,36.02
2018-08-11T09:25:27.993Z,37.51
2018-08-11T09:26:27.991Z,35.54
2018-08-11T09:27:27.966Z,42.71
2018-08-11T09:28:27.954Z,36.53
2018-08-11T09:29:27.953Z,37.28
2018-08-11T09:30:27.936Z,40.08
2018-08-11T09:31:27.933Z,39.92
2018-08-11T09:32:27.918Z,40.78
2018-08-11T09:33:27.901Z,42.10
2018-08-11T09:34:27.891Z,41.58
2018-08-11T09:35:27.882Z,41.74
2018-08-11T09:36:27.878Z,40.16
2018-08-11T09:37:27.857Z,40.82
2018-08-11T09:38:27.875Z,38.85
2018-08-11T09:39:27.836Z,41.69
2018-08-11T09:40:27.826Z,36.98
2018-08-11T09:41:27.821Z,34.05
2018-08-11T09:42:27.801Z,35.22
2018-08-11T09:43:27.790Z,36.01
2018-08-11T09:44:27.778Z,35.35
2018-08-11T09:45:27.769Z,36.32
2018-08-11T09:46:27.770Z,36.10
2018-08-11T09:47:27.767Z,38.65
2018-08-11T09:48:27.741Z,39.18
2018-08-11T09:49:27.726Z,39.40
2018-08-11T09:50:27.713Z,41.33
2018-08-11T09:51:27.755Z,41.93
2018-08-11T09:52:27.691Z,40.56
2018-08-11T09:53:27.679Z,42.27
2018-08-11T09:54:27.668Z,40.84
2018-08-11T09:55:27.659Z,39.18
2018-08-11T09:56:27.645Z,39.67
2018-08-11T09:57:27.649Z,38.59
2018-08-11T09:58:27.624Z,39.76
2018-08-11T09:59:27.618Z,37.16
2018-08-11T10:00:27.605Z,36.49
2018-08-11T10:01:27.592Z,38.45
2018-08-11T10:02:27.590Z,39.78
2018-08-11T10:03:27.574Z,40.52
2018-08-11T10:04:27.559Z,41.12
2018-08-11T10:05:27.550Z,42.89
2018-08-11T10:06:27.536Z,44.28
2018-08-11T10:07:27.533Z,39.69
2018-08-11T10:08:27.513Z,40.70
2018-08-11T10:09:27.501Z,40.60
2018-08-11T10:10:27.504Z,42.13
2018-08-11T10:11:27.480Z,42.65
2018-08-11T10:12:27.482Z,42.55
2018-08-11T10:13:27.460Z,42.18
2018-08-11T10:14:27.450Z,43.29
2018-08-11T10:15:27.436Z,42.69
2018-08-11T10:16:27.426Z,44.19
2018-08-11T10:17:27.428Z,42.79
2018-08-11T10:18:27.459Z,42.91
2018-08-11T10:19:27.392Z,45.59
2018-08-11T10:20:27.384Z,46.19
2018-08-11T10:21:27.372Z,44.19
2018-08-11T10:22:27.367Z,44.21
2018-08-11T10:23:27.351Z,43.21
2018-08-11T10:24:27.423Z,41.93
2018-08-11T10:25:27.326Z,44.23
2018-08-11T10:26:27.314Z,44.15
2018-08-11T10:27:27.348Z,43.55
2018-08-11T10:28:27.294Z,44.35
2018-08-11T10:29:27.283Z,44.85
2018-08-11T10:30:27.269Z,44.45
2018-08-11T10:31:27.272Z,44.27
2018-08-11T10:32:27.468Z,44.97
2018-08-11T10:33:27.236Z,45.17
2018-08-11T10:34:27.226Z,43.57
2018-08-11T10:35:27.216Z,43.29
2018-08-11T10:36:27.212Z,44.20
2018-08-11T10:37:27.207Z,45.29
2018-08-11T10:38:27.181Z,45.39
2018-08-11T10:39:27.171Z,45.20
2018-08-11T10:40:27.162Z,46.47
2018-08-11T10:41:27.155Z,45.77
2018-08-11T10:42:27.152Z,46.27
2018-08-11T10:43:27.132Z,46.25
2018-08-11T10:44:27.120Z,45.17
2018-08-11T10:45:27.105Z,44.78
2018-08-11T10:46:27.104Z,45.27
2018-08-11T10:47:27.092Z,44.17
2018-08-11T10:48:27.076Z,44.37
2018-08-11T10:49:27.062Z,45.57
2018-08-11T10:50:27.083Z,45.55
2018-08-11T10:51:27.040Z,46.25
2018-08-11T10:52:27.040Z,47.45
2018-08-11T10:53:27.018Z,42.93
2018-08-11T10:54:27.012Z,42.73
2018-08-11T10:55:26.995Z,42.83
2018-08-11T10:56:26.988Z,44.55
2018-08-11T10:57:26.982Z,42.33
2018-08-11T10:58:26.971Z,42.68
2018-08-11T10:59:26.952Z,43.77
2018-08-11T11:00:26.938Z,44.17
2018-08-11T11:01:26.980Z,44.07
2018-08-11T11:02:26.931Z,45.77
2018-08-11T11:03:26.908Z,45.25
2018-08-11T11:04:26.898Z,44.65
2018-08-11T11:05:26.886Z,47.05
2018-08-11T11:06:26.874Z,43.55
2018-08-11T11:07:26.871Z,43.15
2018-08-11T11:08:26.882Z,43.15
2018-08-11T11:09:26.838Z,40.66
2018-08-11T11:10:26.829Z,42.54
2018-08-11T11:11:26.818Z,42.03
2018-08-11T11:12:26.815Z,43.11
2018-08-11T11:13:26.801Z,43.91
2018-08-11T11:14:26.794Z,43.59
2018-08-11T11:15:26.777Z,42.19
2018-08-11T11:16:26.768Z,42.87
2018-08-11T11:17:26.760Z,39.80
2018-08-11T11:18:26.741Z,40.48
2018-08-11T11:19:26.728Z,39.30
2018-08-11T11:20:26.722Z,39.90
2018-08-11T11:21:26.708Z,43.11
2018-08-11T11:22:26.909Z,40.40
2018-08-11T11:23:26.684Z,39.52
2018-08-11T11:24:26.674Z,40.12
2018-08-11T11:25:26.666Z,39.34
2018-08-11T11:26:26.731Z,41.74
2018-08-11T11:27:26.762Z,40.53
2018-08-11T11:28:26.743Z,41.03
2018-08-11T11:29:26.624Z,42.33
2018-08-11T11:30:26.611Z,41.96
2018-08-11T11:31:26.603Z,42.13
2018-08-11T11:32:26.603Z,41.16
2018-08-11T11:33:26.578Z,41.97
2018-08-11T11:34:26.564Z,40.97
2018-08-11T11:35:26.558Z,41.09
2018-08-11T11:36:26.542Z,40.00
2018-08-11T11:37:26.540Z,40.30
2018-08-11T11:38:26.527Z,40.99
2018-08-11T11:39:26.511Z,42.49
2018-08-11T11:40:26.497Z,41.99
2018-08-11T11:41:26.486Z,40.09
2018-08-11T11:42:26.524Z,40.09
2018-08-11T11:43:26.478Z,39.89
2018-08-11T11:44:26.467Z,40.89
2018-08-11T11:45:26.446Z,41.31
2018-08-11T11:46:26.430Z,40.71
2018-08-11T11:47:26.430Z,42.61
2018-08-11T11:48:26.408Z,41.03
2018-08-11T11:49:26.397Z,39.93
2018-08-11T11:50:26.388Z,40.13
2018-08-11T11:51:26.377Z,40.03
2018-08-11T11:52:26.374Z,40.73
2018-08-11T11:53:26.356Z,40.53
2018-08-11T11:54:26.347Z,39.93
2018-08-11T11:55:26.560Z,40.83
2018-08-11T11:56:26.323Z,40.81
2018-08-11T11:57:26.322Z,38.42
2018-08-11T11:58:26.299Z,39.29
2018-08-11T11:59:26.296Z,39.29
2018-08-11T12:00:26.288Z,39.29
2018-08-11T12:01:26.267Z,38.59
2018-08-11T12:02:26.287Z,40.19
2018-08-11T12:03:26.242Z,39.98
2018-08-11T12:04:26.235Z,40.30
2018-08-11T12:05:26.227Z,38.57
2018-08-11T12:06:26.215Z,40.09
2018-08-11T12:07:26.198Z,38.89
2018-08-11T12:08:26.200Z,38.70
2018-08-11T12:09:26.181Z,39.39
2018-08-11T12:10:26.166Z,39.00
2018-08-11T12:11:26.156Z,39.29
2018-08-11T12:12:26.145Z,37.61
2018-08-11T12:13:26.144Z,38.59
2018-08-11T12:14:26.126Z,37.29
2018-08-11T12:15:26.121Z,37.70
2018-08-11T12:16:26.099Z,38.70
2018-08-11T12:17:26.091Z,37.38
2018-08-11T12:18:26.090Z,36.78
2018-08-11T12:19:26.093Z,36.66
2018-08-11T12:20:26.054Z,35.56
2018-08-11T12:21:26.050Z,37.86
2018-08-11T12:22:26.051Z,37.46
2018-08-11T12:23:26.031Z,36.06
2018-08-11T12:24:26.011Z,38.16
2018-08-11T12:25:26.000Z,36.76
2018-08-11T12:26:25.989Z,37.06
2018-08-11T12:27:25.979Z,37.66
2018-08-11T12:28:25.981Z,36.74
2018-08-11T12:29:25.955Z,37.64
2018-08-11T12:30:25.950Z,37.34
2018-08-11T12:31:25.937Z,37.84
2018-08-11T12:32:25.925Z,36.94
2018-08-11T12:33:25.925Z,37.64
2018-08-11T12:34:25.900Z,38.42
2018-08-11T12:35:25.888Z,40.22
2018-08-11T12:36:25.878Z,36.63
2018-08-11T12:37:25.870Z,35.72
2018-08-11T12:38:25.871Z,38.32
2018-08-11T12:39:25.846Z,37.52
2018-08-11T12:40:25.840Z,37.30
2018-08-11T12:41:25.822Z,36.21
2018-08-11T12:42:25.817Z,37.42
2018-08-11T12:43:25.814Z,35.72
2018-08-11T12:44:25.791Z,35.71
2018-08-11T12:45:25.781Z,36.61
2018-08-11T12:46:25.767Z,36.01
2018-08-11T12:47:25.765Z,35.51
2018-08-11T12:48:25.753Z,34.61
2018-08-11T12:49:25.738Z,34.59
2018-08-11T12:50:25.723Z,35.49
2018-08-11T12:51:25.713Z,35.11
2018-08-11T12:52:25.702Z,36.61
2018-08-11T12:53:25.722Z,36.41
2018-08-11T12:54:25.688Z,36.71
2018-08-11T12:55:25.668Z,36.32
2018-08-11T12:56:25.656Z,37.62
2018-08-11T12:57:25.645Z,36.84
2018-08-11T12:58:25.672Z,36.46
2018-08-11T12:59:25.623Z,36.46
2018-08-11T13:00:25.620Z,37.16
2018-08-11T13:01:25.645Z,38.68
2018-08-11T13:02:25.590Z,36.88
2018-08-11T13:03:25.589Z,36.98
2018-08-11T13:04:25.575Z,37.18
2018-08-11T13:05:25.556Z,36.90
2018-08-11T13:06:25.581Z,36.38
2018-08-11T13:07:25.535Z,35.69
2018-08-11T13:08:25.533Z,35.68
2018-08-11T13:09:25.552Z,35.68
2018-08-11T13:10:25.505Z,35.80
2018-08-11T13:11:25.490Z,36.69
2018-08-11T13:12:25.483Z,36.40
2018-08-11T13:13:25.485Z,36.49
2018-08-11T13:14:25.473Z,36.79
2018-08-11T13:15:25.450Z,37.40
2018-08-11T13:16:25.438Z,38.18
2018-08-11T13:17:25.425Z,40.67
2018-08-11T13:18:25.425Z,39.07
2018-08-11T13:19:25.402Z,37.16
2018-08-11T13:20:25.394Z,37.46
2018-08-11T13:21:25.381Z,36.86
2018-08-11T13:22:25.373Z,37.06
2018-08-11T13:23:25.374Z,36.58
2018-08-11T13:24:25.352Z,36.56
2018-08-11T13:25:25.337Z,38.46
2018-08-11T13:26:25.327Z,36.76
2018-08-11T13:27:25.313Z,37.46
2018-08-11T13:28:25.314Z,37.23
2018-08-11T13:29:25.293Z,37.32
2018-08-11T13:30:25.283Z,36.22
2018-08-11T13:31:25.268Z,37.72
2018-08-11T13:32:25.261Z,36.44
2018-08-11T13:33:25.260Z,37.34
2018-08-11T13:34:25.235Z,37.74
2018-08-11T13:35:25.227Z,37.64
2018-08-11T13:36:25.214Z,36.64
2018-08-11T13:37:25.208Z,37.44
2018-08-11T13:38:25.203Z,37.04
2018-08-11T13:39:25.183Z,36.84
2018-08-11T13:40:25.168Z,37.76
2018-08-11T13:41:25.159Z,36.36
2018-08-11T13:42:25.150Z,37.86
2018-08-11T13:43:25.145Z,37.66
2018-08-11T13:44:25.145Z,36.46
2018-08-11T13:45:25.114Z,39.28
2018-08-11T13:46:25.129Z,39.36
2018-08-11T13:47:25.092Z,36.66
2018-08-11T13:48:25.097Z,39.56
2018-08-11T13:49:25.074Z,38.66
2018-08-11T13:50:25.062Z,37.26
2018-08-11T13:51:25.057Z,36.44
2018-08-11T13:52:25.040Z,36.15
2018-08-11T13:53:25.037Z,40.92
2018-08-11T13:54:25.078Z,36.74
2018-08-11T13:55:25.010Z,37.52
2018-08-11T13:56:24.999Z,40.42
2018-08-11T13:57:24.980Z,37.64
2018-08-11T13:58:24.981Z,37.23
2018-08-11T13:59:24.959Z,38.32
2018-08-11T14:00:24.954Z,38.32
2018-08-11T14:01:24.965Z,37.12
2018-08-11T14:02:24.929Z,36.72
2018-08-11T14:03:24.949Z,37.70
2018-08-11T14:04:24.906Z,34.83
2018-08-11T14:05:24.894Z,34.93
2018-08-11T14:06:24.883Z,35.72
2018-08-11T14:07:24.909Z,34.53
2018-08-11T14:08:24.861Z,35.83
2018-08-11T14:09:24.861Z,36.11
2018-08-11T14:10:24.844Z,34.71
2018-08-11T14:11:24.827Z,34.81
2018-08-11T14:12:24.820Z,35.71
2018-08-11T14:13:24.805Z,34.91
2018-08-11T14:14:24.808Z,34.41
2018-08-11T14:15:24.787Z,33.91
2018-08-11T14:16:24.772Z,35.83
2018-08-11T14:17:24.764Z,36.93
2018-08-11T14:18:24.762Z,35.33
2018-08-11T14:19:24.754Z,35.63
2018-08-11T14:20:24.874Z,34.43
2018-08-11T14:21:24.721Z,34.53
2018-08-11T14:22:24.705Z,34.63
2018-08-11T14:23:24.697Z,34.11
2018-08-11T14:24:24.696Z,34.51
2018-08-11T14:25:24.673Z,35.01
2018-08-11T14:26:24.661Z,34.41
2018-08-11T14:27:24.658Z,34.41
2018-08-11T14:28:24.637Z,32.83
2018-08-11T14:29:24.638Z,34.03
2018-08-11T14:30:24.615Z,34.13
2018-08-11T14:31:24.612Z,34.03
2018-08-11T14:32:24.593Z,34.63
2018-08-11T14:33:24.583Z,34.43
2018-08-11T14:34:24.597Z,34.34
2018-08-11T14:35:24.561Z,34.14
2018-08-11T14:36:24.556Z,33.75
2018-08-11T14:37:24.540Z,33.45
2018-08-11T14:38:24.535Z,33.95
2018-08-11T14:39:24.526Z,34.63
2018-08-11T14:40:24.510Z,33.54
2018-08-11T14:41:24.493Z,34.14
2018-08-11T14:42:24.482Z,34.23
2018-08-11T14:43:24.475Z,35.42
2018-08-11T14:44:24.544Z,33.33
2018-08-11T14:45:24.453Z,34.03
2018-08-11T14:46:24.441Z,34.43
2018-08-11T14:47:24.431Z,34.03
2018-08-11T14:48:24.417Z,34.55
2018-08-11T14:49:24.422Z,34.55
2018-08-11T14:50:24.445Z,35.72
2018-08-11T14:51:24.383Z,33.43
2018-08-11T14:52:24.372Z,34.13
2018-08-11T14:53:24.364Z,35.03
2018-08-11T14:54:24.363Z,34.53
2018-08-11T14:55:24.343Z,33.73
2018-08-11T14:56:24.458Z,32.75
2018-08-11T14:57:24.325Z,33.45
2018-08-11T14:58:24.311Z,34.75
2018-08-11T14:59:24.309Z,34.05
2018-08-11T15:00:24.289Z,32.95
2018-08-11T15:01:24.276Z,33.47
2018-08-11T15:02:24.272Z,34.16
2018-08-11T15:03:24.250Z,35.46
2018-08-11T15:04:24.254Z,35.28
2018-08-11T15:05:24.229Z,37.68
2018-08-11T15:06:24.219Z,35.49
2018-08-11T15:07:24.210Z,36.58
2018-08-11T15:08:24.198Z,35.39
2018-08-11T15:09:24.200Z,35.71
2018-08-11T15:10:24.173Z,34.59
2018-08-11T15:11:24.164Z,36.40
2018-08-11T15:12:24.151Z,37.10
2018-08-11T15:13:24.143Z,37.49
2018-08-11T15:14:24.142Z,37.29
2018-08-11T15:15:24.120Z,34.89
2018-08-11T15:16:24.250Z,36.49
2018-08-11T15:17:24.098Z,37.29
2018-08-11T15:18:24.085Z,38.79
2018-08-11T15:19:24.086Z,35.18
2018-08-11T15:20:24.063Z,35.88
2018-08-11T15:21:24.052Z,35.69
2018-08-11T15:22:24.041Z,35.80
2018-08-11T15:23:24.039Z,36.78
2018-08-11T15:24:24.031Z,38.28
2018-08-11T15:25:24.010Z,37.48
2018-08-11T15:26:23.997Z,40.37
2018-08-11T15:27:23.989Z,35.68
2018-08-11T15:28:23.974Z,35.38
2018-08-11T15:29:23.973Z,36.06
2018-08-11T15:30:23.953Z,34.78
2018-08-11T15:31:23.944Z,33.96
2018-08-11T15:32:23.940Z,34.68
2018-08-11T15:33:23.985Z,35.06
2018-08-11T15:34:23.943Z,35.38
2018-08-11T15:35:23.903Z,35.38
2018-08-11T15:36:23.895Z,34.28
2018-08-11T15:37:23.875Z,33.38
2018-08-11T15:38:23.863Z,35.38
2018-08-11T15:39:23.864Z,34.59
2018-08-11T15:40:23.842Z,33.89
2018-08-11T15:41:23.831Z,35.30
2018-08-11T15:42:23.820Z,34.00
2018-08-11T15:43:23.846Z,34.69
2018-08-11T15:44:23.814Z,34.80
2018-08-11T15:45:23.789Z,33.01
2018-08-11T15:46:23.934Z,34.31
2018-08-11T15:47:23.763Z,34.50
2018-08-11T15:48:23.752Z,33.00
2018-08-11T15:49:23.751Z,32.70
2018-08-11T15:50:23.732Z,33.78
2018-08-11T15:51:23.718Z,33.28
2018-08-11T15:52:23.710Z,33.98
2018-08-11T15:53:23.743Z,33.98
2018-08-11T15:54:23.804Z,33.38
2018-08-11T15:55:23.675Z,34.18
2018-08-11T15:56:23.668Z,34.50
2018-08-11T15:57:23.660Z,34.28
2018-08-11T15:58:23.642Z,34.28
2018-08-11T15:59:23.648Z,33.39
2018-08-11T16:00:23.620Z,35.69
2018-08-11T16:01:23.610Z,34.48
2018-08-11T16:02:23.598Z,34.18
2018-08-11T16:03:23.588Z,34.36
2018-08-11T16:04:23.590Z,34.76
2018-08-11T16:05:23.567Z,35.46
2018-08-11T16:06:23.553Z,33.96
2018-08-11T16:07:23.546Z,37.66
2018-08-11T16:08:23.531Z,41.67
2018-08-11T16:09:23.588Z,33.78
2018-08-11T16:10:23.518Z,35.48
2018-08-11T16:11:23.497Z,35.68
2018-08-11T16:12:23.489Z,34.69
2018-08-11T16:13:23.477Z,35.30
2018-08-11T16:14:23.467Z,36.99
2018-08-11T16:15:23.468Z,38.09
2018-08-11T16:16:23.444Z,39.29
2018-08-11T16:17:23.430Z,42.52
2018-08-11T16:18:23.426Z,36.21
2018-08-11T16:19:23.407Z,51.52
2018-08-11T16:20:23.408Z,46.46
2018-08-11T16:21:23.387Z,43.62
2018-08-11T16:22:23.403Z,43.26
2018-08-11T16:23:23.363Z,52.62
2018-08-11T16:24:23.355Z,50.23
2018-08-11T16:25:23.355Z,47.34
2018-08-11T16:26:23.334Z,53.37
2018-08-11T16:27:23.321Z,52.29
2018-08-11T16:28:23.308Z,50.51
2018-08-11T16:29:23.312Z,49.22
2018-08-11T16:30:23.304Z,47.51
2018-08-11T16:31:23.277Z,46.68
2018-08-11T16:32:23.269Z,52.54
2018-08-11T16:33:23.261Z,48.92
2018-08-11T16:34:23.242Z,46.78
2018-08-11T16:35:23.243Z,53.34
2018-08-11T16:36:23.220Z,54.35
2018-08-11T16:37:23.213Z,45.79
2018-08-11T16:38:23.206Z,41.25
2018-08-11T16:39:23.256Z,40.81
2018-08-11T16:40:23.187Z,39.38
2018-08-11T16:41:23.165Z,43.70
2018-08-11T16:42:23.158Z,42.40
2018-08-11T16:43:23.141Z,40.48
2018-08-11T16:44:23.134Z,38.88
2018-08-11T16:45:23.135Z,41.07
2018-08-11T16:46:23.109Z,42.68
2018-08-11T16:47:23.097Z,46.69
2018-08-11T16:48:23.090Z,41.19
2018-08-11T16:49:23.079Z,38.96
2018-08-11T16:50:23.086Z,37.76
2018-08-11T16:51:23.069Z,38.04
2018-08-11T16:54:07.504Z,41.75